Time;durP1;ratioP1;P1;durP2;ratioP2;P2;SDS_P1;SDS_P2;PMS_P1;PMS_P2;Temp;Humidity;BMP_temperature;BMP_pressure;BME280_temperature;BME280_humidity;BME280_pressure;Samples;Min_cycle;Max_cycle;Signal;HPM_P1;HPM_P2
2021/12/31 00:01:34;;;;;;;1.00;1.00;;;12.00;99.90;;;;;;7386392;19;20362;-83
2021/12/31 00:04:00;;;;;;;0.90;0.90;;;12.00;99.90;;;;;;7408329;19;20300;-83
2021/12/31 00:06:25;;;;;;;0.77;0.77;;;12.00;99.90;;;;;;7411492;19;20340;-86
2021/12/31 00:08:51;;;;;;;2.00;1.03;;;12.00;99.90;;;;;;7407887;19;20354;-87
2021/12/31 00:11:17;;;;;;;1.00;1.00;;;12.00;99.90;;;;;;7416268;19;20372;-82
2021/12/31 00:13:42;;;;;;;0.77;0.77;;;12.00;99.90;;;;;;7411338;19;20371;-90
2021/12/31 00:16:08;;;;;;;1.13;0.90;;;12.00;99.90;;;;;;7413317;19;20324;-85
2021/12/31 00:18:34;;;;;;;1.00;1.00;;;12.20;99.90;;;;;;7412889;19;20352;-85
2021/12/31 00:21:00;;;;;;;1.50;0.90;;;12.00;99.90;;;;;;7411920;19;20321;-82
2021/12/31 00:23:27;;;;;;;0.90;0.90;;;12.10;99.90;;;;;;7408770;19;20316;-84
2021/12/31 00:25:52;;;;;;;0.98;0.90;;;12.10;99.90;;;;;;7411710;19;20341;-85
2021/12/31 00:28:18;;;;;;;1.13;1.02;;;12.20;99.90;;;;;;7410449;19;20339;-81
2021/12/31 00:30:44;;;;;;;1.40;1.10;;;12.10;99.90;;;;;;7411451;19;20309;-83
2021/12/31 00:33:10;;;;;;;0.97;0.97;;;12.20;99.90;;;;;;7415509;19;20336;-91
2021/12/31 00:35:37;;;;;;;1.17;1.17;;;12.20;99.90;;;;;;7412485;19;20328;-86
2021/12/31 00:38:03;;;;;;;1.23;1.00;;;12.20;99.90;;;;;;7414584;19;20345;-84
2021/12/31 00:40:29;;;;;;;0.90;0.90;;;12.20;99.90;;;;;;7414533;19;20336;-87
2021/12/31 00:42:55;;;;;;;0.90;0.90;;;12.20;99.90;;;;;;7418385;19;20308;-86
2021/12/31 00:45:21;;;;;;;1.10;1.10;;;12.20;99.90;;;;;;7417631;19;20301;-83
2021/12/31 00:47:47;;;;;;;0.90;0.90;;;12.20;99.90;;;;;;7420781;19;20329;-86
2021/12/31 00:50:13;;;;;;;0.80;0.80;;;12.20;99.90;;;;;;7422108;19;20361;-85
2021/12/31 00:52:39;;;;;;;0.82;0.82;;;12.10;99.90;;;;;;7419251;19;20372;-85
2021/12/31 00:55:05;;;;;;;1.00;1.00;;;12.20;99.90;;;;;;7404005;19;20327;-86
2021/12/31 00:57:31;;;;;;;1.47;1.10;;;12.20;99.90;;;;;;7423528;19;20681;-92
2021/12/31 00:59:57;;;;;;;0.80;0.80;;;12.40;99.90;;;;;;7418464;19;20320;-86
2021/12/31 01:02:24;;;;;;;0.90;0.90;;;12.20;99.90;;;;;;7418933;19;20309;-85
2021/12/31 01:04:49;;;;;;;1.10;1.00;;;12.30;99.90;;;;;;7416792;19;20431;-86
2021/12/31 01:07:15;;;;;;;1.40;1.20;;;12.30;99.90;;;;;;7418304;19;20823;-88
2021/12/31 01:09:41;;;;;;;2.30;1.10;;;12.30;99.90;;;;;;7421835;19;20316;-87
2021/12/31 01:12:10;;;;;;;1.10;1.10;;;12.30;99.90;;;;;;7421135;19;20309;-87
2021/12/31 01:14:39;;;;;;;1.52;1.20;;;12.30;99.90;;;;;;7419997;19;20408;-85
2021/12/31 01:17:08;;;;;;;1.35;1.00;;;12.30;99.90;;;;;;7425177;19;20329;-87
2021/12/31 01:19:48;;;;;;;1.17;1.08;;;12.30;99.90;;;;;;7423016;19;20329;-87
2021/12/31 01:22:22;;;;;;;1.25;1.15;;;12.30;99.90;;;;;;7317973;19;2005658;-83
2021/12/31 01:24:48;;;;;;;0.90;0.90;;;12.30;99.90;;;;;;7319493;19;2004212;-84
2021/12/31 01:27:13;;;;;;;1.30;1.20;;;12.20;99.90;;;;;;7421663;19;20309;-89
2021/12/31 01:29:39;;;;;;;4.03;1.25;;;12.20;99.90;;;;;;7422975;19;20337;-86
2021/12/31 01:32:05;;;;;;;1.10;1.10;;;12.20;99.90;;;;;;7421260;19;20333;-85
2021/12/31 01:34:31;;;;;;;0.90;0.90;;;12.20;99.90;;;;;;7420461;19;20328;-88
2021/12/31 01:36:59;;;;;;;1.00;1.00;;;12.20;99.90;;;;;;7422447;19;20345;-85
2021/12/31 01:39:25;;;;;;;1.00;1.00;;;12.20;99.90;;;;;;7422651;19;20313;-82
2021/12/31 01:41:51;;;;;;;0.80;0.80;;;12.20;99.90;;;;;;7418055;19;20348;-86
2021/12/31 01:44:16;;;;;;;1.20;1.10;;;12.20;99.90;;;;;;7420552;19;20339;-83
2021/12/31 01:46:56;;;;;;;1.15;1.15;;;12.30;99.90;;;;;;7422635;19;20352;-88
2021/12/31 01:49:23;;;;;;;1.13;1.10;;;12.40;99.90;;;;;;7419642;19;20347;-83
2021/12/31 01:51:49;;;;;;;1.17;1.05;;;12.40;99.90;;;;;;7420025;19;20321;-85
2021/12/31 01:54:14;;;;;;;0.90;0.90;;;12.40;99.90;;;;;;7419571;19;20352;-86
2021/12/31 01:56:40;;;;;;;0.95;0.95;;;12.50;99.90;;;;;;7421044;19;20366;-87
2021/12/31 01:59:06;;;;;;;1.23;1.20;;;12.60;99.90;;;;;;7420627;19;20330;-89
2021/12/31 02:01:31;;;;;;;1.38;1.10;;;12.60;99.90;;;;;;7418433;19;20325;-85
2021/12/31 02:03:59;;;;;;;1.07;1.07;;;12.70;99.90;;;;;;7418456;19;20341;-82
2021/12/31 02:06:25;;;;;;;0.90;0.90;;;12.60;99.90;;;;;;7421199;19;20341;-86
2021/12/31 02:08:51;;;;;;;0.73;0.73;;;12.50;99.90;;;;;;7420700;19;20339;-91
2021/12/31 02:11:17;;;;;;;0.90;0.90;;;12.50;99.90;;;;;;7417588;19;20343;-84
2021/12/31 02:13:43;;;;;;;1.00;1.00;;;12.50;99.90;;;;;;7413857;19;20324;-83
2021/12/31 02:16:09;;;;;;;0.85;0.80;;;12.50;99.90;;;;;;7416079;19;20337;-87
2021/12/31 02:18:35;;;;;;;1.63;1.10;;;12.50;99.90;;;;;;7418298;19;20304;-89
2021/12/31 02:21:03;;;;;;;0.90;0.90;;;12.50;99.90;;;;;;7420804;19;20340;-84
2021/12/31 02:23:37;;;;;;;1.00;1.00;;;12.50;99.90;;;;;;7412437;19;20343;-86
2021/12/31 02:26:03;;;;;;;0.93;0.93;;;12.50;99.90;;;;;;7414028;19;20311;-83
2021/12/31 02:28:29;;;;;;;0.83;0.83;;;12.50;99.90;;;;;;7416602;19;20341;-89
2021/12/31 02:31:00;;;;;;;1.00;1.00;;;12.50;99.90;;;;;;7418020;19;20370;-85
2021/12/31 02:33:26;;;;;;;0.70;0.70;;;12.50;99.90;;;;;;7417670;19;20944;-84
2021/12/31 02:35:51;;;;;;;1.00;1.00;;;12.50;99.90;;;;;;7415487;19;20333;-87
2021/12/31 02:38:17;;;;;;;0.87;0.87;;;12.50;99.90;;;;;;7414583;19;20341;-86
2021/12/31 02:40:43;;;;;;;0.80;0.80;;;12.50;99.90;;;;;;7402625;19;20355;-87
2021/12/31 02:43:08;;;;;;;0.90;0.90;;;12.50;99.90;;;;;;7413568;19;20308;-86
2021/12/31 02:45:37;;;;;;;0.90;0.90;;;12.40;99.90;;;;;;7420418;19;20332;-84
2021/12/31 02:48:04;;;;;;;1.00;1.00;;;12.40;99.90;;;;;;7413600;19;20329;-84
2021/12/31 02:50:34;;;;;;;0.90;0.90;;;12.40;99.90;;;;;;7415363;19;20305;-84
2021/12/31 02:53:01;;;;;;;0.75;0.75;;;12.50;99.90;;;;;;7418581;19;20332;-88
2021/12/31 02:55:30;;;;;;;0.73;0.73;;;12.50;99.90;;;;;;7414050;19;20336;-83
2021/12/31 02:57:56;;;;;;;1.05;1.00;;;12.50;99.90;;;;;;7411981;19;20320;-86
2021/12/31 03:00:21;;;;;;;0.80;0.80;;;12.50;99.90;;;;;;7415292;19;20348;-81
2021/12/31 03:02:47;;;;;;;0.80;0.80;;;12.50;99.90;;;;;;7414688;19;20381;-84
2021/12/31 03:05:13;;;;;;;0.93;0.93;;;12.50;99.90;;;;;;7414080;19;20309;-90
2021/12/31 03:07:42;;;;;;;0.80;0.80;;;12.50;99.90;;;;;;7413859;19;22781;-86
2021/12/31 03:10:08;;;;;;;4.03;0.80;;;12.60;99.90;;;;;;7415665;19;20336;-87
2021/12/31 03:12:33;;;;;;;0.75;0.75;;;12.60;99.90;;;;;;7416586;19;20345;-89
2021/12/31 03:14:59;;;;;;;0.77;0.77;;;12.60;99.90;;;;;;7411127;19;20310;-84
2021/12/31 03:17:25;;;;;;;0.90;0.90;;;12.60;99.90;;;;;;7413580;19;20384;-84
2021/12/31 03:19:59;;;;;;;1.00;0.90;;;12.60;99.90;;;;;;7412812;19;20344;-82
2021/12/31 03:22:25;;;;;;;0.70;0.70;;;12.60;99.90;;;;;;7308439;19;2004470;-82
2021/12/31 03:24:51;;;;;;;1.00;0.70;;;12.60;99.90;;;;;;7414893;19;20349;-84
2021/12/31 03:27:16;;;;;;;0.93;0.73;;;12.60;99.90;;;;;;7413635;19;20344;-82
2021/12/31 03:29:42;;;;;;;0.80;0.80;;;12.60;99.90;;;;;;7413856;19;20387;-82
2021/12/31 03:32:08;;;;;;;1.02;0.90;;;12.70;99.90;;;;;;7413039;19;20367;-84
2021/12/31 03:34:33;;;;;;;2.17;0.90;;;12.60;99.90;;;;;;7411313;19;21192;-82
2021/12/31 03:36:59;;;;;;;0.70;0.70;;;12.60;99.90;;;;;;7416277;19;20415;-83
2021/12/31 03:39:25;;;;;;;5.75;0.75;;;12.70;99.90;;;;;;7412179;19;20398;-84
2021/12/31 03:41:50;;;;;;;0.77;0.77;;;12.70;99.90;;;;;;7415703;19;20313;-84
2021/12/31 03:44:16;;;;;;;1.15;0.70;;;12.70;99.90;;;;;;7411014;19;20392;-83
2021/12/31 03:46:42;;;;;;;0.70;0.70;;;12.70;99.90;;;;;;7411764;19;20340;-84
2021/12/31 03:49:07;;;;;;;0.73;0.73;;;12.60;99.90;;;;;;7411622;19;20361;-89
2021/12/31 03:51:33;;;;;;;0.60;0.60;;;12.60;99.90;;;;;;7407070;19;20693;-81
2021/12/31 03:53:59;;;;;;;0.70;0.70;;;12.70;99.90;;;;;;7407070;19;20356;-84
2021/12/31 03:56:29;;;;;;;0.70;0.70;;;12.60;99.90;;;;;;7414664;19;20404;-86
2021/12/31 03:58:55;;;;;;;0.75;0.75;;;12.60;99.90;;;;;;7403689;19;20685;-82
2021/12/31 04:01:21;;;;;;;0.70;0.70;;;12.50;99.90;;;;;;7404324;19;20304;-84
2021/12/31 04:03:46;;;;;;;0.68;0.68;;;12.60;99.90;;;;;;7404403;19;20344;-87
2021/12/31 04:06:12;;;;;;;0.97;0.77;;;12.60;99.90;;;;;;7388453;19;20325;-84
2021/12/31 04:08:38;;;;;;;0.60;0.60;;;12.60;99.90;;;;;;7404726;19;20332;-81
2021/12/31 04:11:04;;;;;;;0.73;0.73;;;12.60;99.90;;;;;;7402435;19;20376;-82
2021/12/31 04:13:30;;;;;;;0.67;0.67;;;12.60;99.90;;;;;;7403529;19;20324;-82
2021/12/31 04:15:56;;;;;;;0.70;0.70;;;12.60;99.90;;;;;;7407650;19;20341;-82
2021/12/31 04:18:24;;;;;;;0.70;0.70;;;12.60;99.90;;;;;;7412674;19;20887;-85
2021/12/31 04:20:49;;;;;;;0.75;0.75;;;12.60;99.90;;;;;;7414282;19;20309;-87
2021/12/31 04:23:27;;;;;;;0.60;0.60;;;12.60;99.90;;;;;;7416024;19;20298;-88
2021/12/31 04:25:53;;;;;;;1.10;0.80;;;12.60;99.90;;;;;;7313172;19;2004471;-82
2021/12/31 04:28:19;;;;;;;0.82;0.82;;;12.60;99.90;;;;;;7410160;19;20404;-82
2021/12/31 04:30:44;;;;;;;0.80;0.80;;;12.70;99.90;;;;;;7401129;19;20309;-85
2021/12/31 04:33:10;;;;;;;0.85;0.85;;;12.70;99.90;;;;;;7405772;19;20319;-87
2021/12/31 04:35:36;;;;;;;0.80;0.80;;;12.70;99.90;;;;;;7413403;19;20376;-84
2021/12/31 04:38:01;;;;;;;0.73;0.73;;;12.70;99.90;;;;;;7411366;19;20328;-82
2021/12/31 04:40:27;;;;;;;1.40;0.80;;;12.70;99.90;;;;;;7414733;19;20348;-85
2021/12/31 04:42:53;;;;;;;0.70;0.70;;;12.70;99.90;;;;;;7410871;19;20320;-86
2021/12/31 04:45:18;;;;;;;1.23;0.80;;;12.70;99.90;;;;;;7410411;19;20328;-82
2021/12/31 04:47:44;;;;;;;2.63;0.80;;;12.70;99.90;;;;;;7407606;19;20359;-82
2021/12/31 04:50:10;;;;;;;0.80;0.80;;;12.70;99.90;;;;;;7412044;19;20388;-82
2021/12/31 04:52:35;;;;;;;0.80;0.80;;;12.80;99.90;;;;;;7410963;19;20337;-84
2021/12/31 04:55:01;;;;;;;0.80;0.80;;;12.70;99.90;;;;;;7408705;19;20320;-84
2021/12/31 04:57:27;;;;;;;0.75;0.73;;;12.70;99.90;;;;;;7410862;19;20340;-87
2021/12/31 04:59:53;;;;;;;1.10;1.00;;;12.60;99.90;;;;;;7403713;19;20363;-81
2021/12/31 05:02:18;;;;;;;0.90;0.90;;;12.70;99.90;;;;;;7409012;19;20351;-81
2021/12/31 05:04:44;;;;;;;0.80;0.80;;;12.70;99.90;;;;;;7407842;19;20312;-84
2021/12/31 05:07:10;;;;;;;0.88;0.88;;;12.70;99.90;;;;;;7406844;19;20844;-86
2021/12/31 05:09:35;;;;;;;1.13;1.03;;;12.70;99.90;;;;;;7405775;19;20324;-84
2021/12/31 05:12:02;;;;;;;1.20;0.80;;;12.70;99.90;;;;;;7406779;19;20337;-83
2021/12/31 05:14:27;;;;;;;0.60;0.60;;;12.60;99.90;;;;;;7403965;19;20388;-81
2021/12/31 05:16:53;;;;;;;0.63;0.63;;;12.50;99.90;;;;;;7408909;19;20695;-82
2021/12/31 05:19:18;;;;;;;0.80;0.80;;;12.70;99.90;;;;;;7408331;19;20304;-82
2021/12/31 05:21:44;;;;;;;0.70;0.70;;;12.50;99.90;;;;;;7411163;19;20354;-81
2021/12/31 05:24:10;;;;;;;0.70;0.70;;;12.50;99.90;;;;;;7409192;19;20329;-81
2021/12/31 05:26:35;;;;;;;0.60;0.60;;;12.50;99.90;;;;;;7406819;19;20859;-81
2021/12/31 05:29:02;;;;;;;0.77;0.77;;;12.50;99.90;;;;;;7407010;19;20316;-80
2021/12/31 05:31:28;;;;;;;0.80;0.80;;;12.50;99.90;;;;;;7397903;19;20444;-80
2021/12/31 05:33:54;;;;;;;0.98;0.68;;;12.50;99.90;;;;;;7402542;19;20361;-82
2021/12/31 05:36:19;;;;;;;0.70;0.70;;;12.50;99.90;;;;;;7406628;19;20316;-80
2021/12/31 05:38:45;;;;;;;0.80;0.80;;;12.50;99.90;;;;;;7410667;19;20321;-81
2021/12/31 05:41:11;;;;;;;0.50;0.50;;;12.40;99.90;;;;;;7413332;19;21008;-83
2021/12/31 05:43:37;;;;;;;1.60;0.80;;;12.40;99.90;;;;;;7402328;19;20344;-81
2021/12/31 05:46:02;;;;;;;0.70;0.70;;;12.40;99.90;;;;;;7402827;19;20324;-80
2021/12/31 05:48:29;;;;;;;1.52;0.98;;;12.40;99.90;;;;;;7407344;19;20293;-81
2021/12/31 05:50:55;;;;;;;0.80;0.80;;;12.40;99.90;;;;;;7403981;19;20312;-80
2021/12/31 05:53:21;;;;;;;1.40;0.70;;;12.40;99.90;;;;;;7401501;19;20349;-81
2021/12/31 05:55:46;;;;;;;0.73;0.73;;;12.40;99.90;;;;;;7404049;19;20849;-81
2021/12/31 05:58:12;;;;;;;3.03;0.90;;;12.40;99.90;;;;;;7402293;19;20404;-82
2021/12/31 06:00:38;;;;;;;0.70;0.70;;;12.40;99.90;;;;;;7405485;19;20872;-82
2021/12/31 06:03:04;;;;;;;0.70;0.70;;;12.40;99.90;;;;;;7402764;19;20292;-81
2021/12/31 06:05:30;;;;;;;0.57;0.57;;;12.40;99.90;;;;;;7406090;19;20325;-82
2021/12/31 06:07:57;;;;;;;0.70;0.70;;;12.30;99.90;;;;;;7403105;19;20320;-81
2021/12/31 06:10:23;;;;;;;0.65;0.65;;;12.30;99.90;;;;;;7400745;19;20321;-84
2021/12/31 06:12:52;;;;;;;0.60;0.60;;;12.40;99.90;;;;;;7402925;19;20344;-86
2021/12/31 06:15:20;;;;;;;1.10;0.60;;;12.40;99.90;;;;;;7406784;19;20313;-85
2021/12/31 06:17:45;;;;;;;0.85;0.75;;;12.40;99.90;;;;;;7413242;19;20320;-82
2021/12/31 06:20:11;;;;;;;0.60;0.60;;;12.40;99.90;;;;;;7414407;19;20313;-85
2021/12/31 06:22:37;;;;;;;0.60;0.60;;;12.40;99.90;;;;;;7408734;19;20365;-82
2021/12/31 06:25:03;;;;;;;0.50;0.50;;;12.30;99.90;;;;;;7404069;19;20312;-83
2021/12/31 06:27:29;;;;;;;0.60;0.60;;;12.30;99.90;;;;;;7402386;19;20341;-81
2021/12/31 06:29:54;;;;;;;0.50;0.50;;;12.30;99.90;;;;;;7406597;19;20734;-81
2021/12/31 06:32:20;;;;;;;0.70;0.70;;;12.40;99.90;;;;;;7407400;19;20906;-84
2021/12/31 06:34:46;;;;;;;0.60;0.60;;;12.30;99.90;;;;;;7417467;19;20329;-89
2021/12/31 06:37:11;;;;;;;0.60;0.60;;;12.30;99.90;;;;;;7421016;19;20310;-91
2021/12/31 06:39:37;;;;;;;0.75;0.73;;;12.30;99.90;;;;;;7415805;19;20321;-85
2021/12/31 06:42:07;;;;;;;0.53;0.53;;;12.40;99.90;;;;;;7421200;19;20316;-85
2021/12/31 06:44:34;;;;;;;1.75;0.73;;;12.40;99.90;;;;;;7413390;19;20324;-87
2021/12/31 06:46:59;;;;;;;0.97;0.83;;;12.40;99.90;;;;;;7409879;19;20666;-81
2021/12/31 06:49:25;;;;;;;0.55;0.55;;;12.40;99.90;;;;;;7398355;19;20325;-81
2021/12/31 06:51:51;;;;;;;0.50;0.50;;;12.40;99.90;;;;;;7398834;19;20320;-82
2021/12/31 06:54:16;;;;;;;0.95;0.95;;;12.40;99.90;;;;;;7396823;19;20333;-82
2021/12/31 06:56:42;;;;;;;1.00;0.90;;;12.40;99.90;;;;;;7398919;19;20303;-81
2021/12/31 06:59:08;;;;;;;0.80;0.80;;;12.40;99.90;;;;;;7400069;19;20327;-81
2021/12/31 07:01:33;;;;;;;1.67;0.67;;;12.40;99.90;;;;;;7386232;19;20898;-80
2021/12/31 07:03:59;;;;;;;0.60;0.60;;;12.40;99.90;;;;;;7401538;19;21151;-82
2021/12/31 07:06:24;;;;;;;0.80;0.80;;;12.40;99.90;;;;;;7404353;19;20413;-82
2021/12/31 07:08:50;;;;;;;0.83;0.83;;;12.50;99.90;;;;;;7398856;19;20309;-82
2021/12/31 07:11:17;;;;;;;0.70;0.70;;;12.50;99.90;;;;;;7407370;19;20341;-85
2021/12/31 07:13:43;;;;;;;0.63;0.63;;;12.40;99.90;;;;;;7400995;19;20320;-82
2021/12/31 07:16:08;;;;;;;0.85;0.85;;;12.50;99.90;;;;;;7392005;19;20377;-83
2021/12/31 07:18:34;;;;;;;0.70;0.70;;;12.50;99.90;;;;;;7405277;19;20313;-85
2021/12/31 07:21:00;;;;;;;0.90;0.90;;;12.50;99.90;;;;;;7410733;19;20329;-83
2021/12/31 07:23:25;;;;;;;0.80;0.80;;;12.50;99.90;;;;;;7411846;19;20345;-86
2021/12/31 07:25:51;;;;;;;0.70;0.70;;;12.50;99.90;;;;;;7399965;19;20340;-82
2021/12/31 07:28:17;;;;;;;3.07;2.37;;;12.50;99.90;;;;;;7398252;19;20719;-82
2021/12/31 07:30:43;;;;;;;1.40;1.30;;;12.50;99.90;;;;;;7395895;19;20310;-82
2021/12/31 07:33:21;;;;;;;0.90;0.90;;;12.50;99.90;;;;;;7393818;19;20344;-84
2021/12/31 07:35:48;;;;;;;1.17;1.00;;;12.50;99.90;;;;;;7391369;19;20352;-82
2021/12/31 07:38:34;;;;;;;0.77;0.77;;;12.60;99.90;;;;;;7393744;19;20352;-83
2021/12/31 07:40:59;;;;;;;0.82;0.82;;;12.50;99.90;;;;;;7393319;19;20316;-83
2021/12/31 07:43:25;;;;;;;0.80;0.80;;;12.60;99.90;;;;;;7391952;19;20332;-84
2021/12/31 07:45:51;;;;;;;0.90;0.90;;;12.60;99.90;;;;;;7392101;19;20340;-83
2021/12/31 07:48:17;;;;;;;0.90;0.90;;;12.60;99.90;;;;;;7390215;19;20356;-80
2021/12/31 07:50:43;;;;;;;1.30;1.20;;;12.60;99.90;;;;;;7390493;19;20312;-82
2021/12/31 07:53:08;;;;;;;0.80;0.80;;;12.60;99.90;;;;;;7389234;19;20351;-85
2021/12/31 07:55:34;;;;;;;0.80;0.80;;;12.60;99.90;;;;;;7389216;19;20356;-82
2021/12/31 07:58:00;;;;;;;0.83;0.83;;;12.60;99.90;;;;;;7391579;19;20740;-82
2021/12/31 08:00:26;;;;;;;0.90;0.80;;;12.70;99.90;;;;;;7386318;19;20497;-82
2021/12/31 08:02:54;;;;;;;1.00;0.80;;;12.70;99.90;;;;;;7389604;19;20721;-81
2021/12/31 08:05:20;;;;;;;0.80;0.80;;;12.70;99.90;;;;;;7391907;19;20400;-80
2021/12/31 08:07:45;;;;;;;0.80;0.80;;;12.80;99.90;;;;;;7392190;19;20627;-83
2021/12/31 08:10:11;;;;;;;1.50;0.82;;;12.80;99.90;;;;;;7395181;19;20300;-82
2021/12/31 08:12:37;;;;;;;1.97;1.80;;;12.80;99.90;;;;;;7394109;19;20360;-82
2021/12/31 08:15:04;;;;;;;1.35;1.00;;;12.80;99.90;;;;;;7393868;19;20312;-85
2021/12/31 08:17:29;;;;;;;0.60;0.60;;;12.80;99.90;;;;;;7391079;19;20343;-80
2021/12/31 08:19:55;;;;;;;0.63;0.63;;;12.80;99.90;;;;;;7385779;19;20312;-80
2021/12/31 08:22:24;;;;;;;0.80;0.80;;;12.80;99.90;;;;;;7384503;19;20355;-82
2021/12/31 08:24:49;;;;;;;1.37;0.87;;;12.90;99.90;;;;;;7384923;19;20926;-80
2021/12/31 08:27:15;;;;;;;0.80;0.80;;;12.90;99.90;;;;;;7388249;19;20324;-82
2021/12/31 08:29:40;;;;;;;0.80;0.80;;;13.00;99.90;;;;;;7385059;19;20336;-81
2021/12/31 08:32:06;;;;;;;0.70;0.70;;;13.00;99.90;;;;;;7388409;19;20319;-79
2021/12/31 08:34:32;;;;;;;1.20;0.97;;;13.10;99.90;;;;;;7384544;19;20368;-78
2021/12/31 08:36:58;;;;;;;0.60;0.60;;;13.10;99.90;;;;;;7388148;19;20308;-81
2021/12/31 08:39:23;;;;;;;1.10;0.73;;;13.10;99.90;;;;;;7371454;19;20341;-83
2021/12/31 08:41:49;;;;;;;0.93;0.77;;;13.10;99.90;;;;;;7386472;19;20344;-80
2021/12/31 08:44:15;;;;;;;0.60;0.60;;;13.20;99.90;;;;;;7388367;19;20300;-80
2021/12/31 08:46:41;;;;;;;3.25;0.93;;;13.30;99.90;;;;;;7390834;19;20439;-80
2021/12/31 08:49:07;;;;;;;0.80;0.80;;;13.20;99.90;;;;;;7389999;19;20380;-82
2021/12/31 08:51:33;;;;;;;0.68;0.68;;;13.30;99.90;;;;;;7390085;19;20847;-80
2021/12/31 08:53:58;;;;;;;0.80;0.80;;;13.30;99.90;;;;;;7384765;19;20358;-80
2021/12/31 08:56:24;;;;;;;0.60;0.60;;;13.30;99.90;;;;;;7386779;19;20937;-80
2021/12/31 08:58:50;;;;;;;1.20;0.82;;;13.40;99.90;;;;;;7392921;19;21178;-81
2021/12/31 09:01:15;;;;;;;0.70;0.70;;;13.40;99.90;;;;;;7389725;19;20320;-82
2021/12/31 09:03:41;;;;;;;0.82;0.82;;;13.30;99.90;;;;;;7390363;19;20415;-80
2021/12/31 09:06:07;;;;;;;1.00;1.00;;;13.30;99.90;;;;;;7389815;19;20344;-80
2021/12/31 09:08:34;;;;;;;1.17;1.08;;;13.30;99.90;;;;;;7388649;19;20349;-83
2021/12/31 09:11:00;;;;;;;0.70;0.70;;;13.30;99.90;;;;;;7398761;19;20308;-78
2021/12/31 09:13:27;;;;;;;0.65;0.65;;;13.30;99.90;;;;;;7391039;19;20352;-81
2021/12/31 09:15:53;;;;;;;2.85;2.40;;;13.20;99.90;;;;;;7395081;19;20741;-81
2021/12/31 09:18:20;;;;;;;1.47;1.27;;;13.20;99.90;;;;;;7398830;19;20336;-82
2021/12/31 09:20:46;;;;;;;1.43;1.33;;;13.20;99.90;;;;;;7412418;19;20309;-81
2021/12/31 09:23:12;;;;;;;1.02;0.85;;;13.20;99.90;;;;;;7408738;19;20316;-87
2021/12/31 09:25:38;;;;;;;1.77;1.60;;;13.20;99.90;;;;;;7407413;19;20456;-88
2021/12/31 09:28:03;;;;;;;1.33;1.23;;;13.10;99.90;;;;;;7407443;19;20361;-82
2021/12/31 09:30:29;;;;;;;0.95;0.85;;;13.10;99.90;;;;;;7407084;19;20334;-81
2021/12/31 09:32:55;;;;;;;0.80;0.80;;;13.10;99.90;;;;;;7404275;19;20341;-84
2021/12/31 09:35:20;;;;;;;0.60;0.60;;;13.10;99.90;;;;;;7398917;19;20362;-81
2021/12/31 09:37:46;;;;;;;2.27;1.00;;;13.10;99.90;;;;;;7387402;19;20326;-83
2021/12/31 09:40:15;;;;;;;1.07;0.97;;;13.10;99.90;;;;;;7401212;19;20357;-83
2021/12/31 09:42:59;;;;;;;0.65;0.65;;;13.10;99.90;;;;;;7403474;19;20393;-80
2021/12/31 09:45:26;;;;;;;0.75;0.75;;;13.20;99.90;;;;;;7402783;19;20356;-81
2021/12/31 09:47:52;;;;;;;1.30;0.80;;;13.20;99.90;;;;;;7398716;19;20308;-84
2021/12/31 09:50:21;;;;;;;1.10;0.80;;;13.20;99.90;;;;;;7399012;19;20301;-82
2021/12/31 09:52:46;;;;;;;0.90;0.90;;;13.30;99.90;;;;;;7394711;19;20364;-79
2021/12/31 09:55:12;;;;;;;0.60;0.60;;;13.30;99.90;;;;;;7396488;19;20328;-82
2021/12/31 09:57:38;;;;;;;0.70;0.70;;;13.40;99.90;;;;;;7402632;19;20312;-83
2021/12/31 10:00:04;;;;;;;0.70;0.70;;;13.40;99.90;;;;;;7398450;19;20360;-85
2021/12/31 10:02:33;;;;;;;0.80;0.80;;;13.40;99.90;;;;;;7398601;19;20335;-80
2021/12/31 10:04:59;;;;;;;0.70;0.70;;;13.40;99.90;;;;;;7395463;19;20380;-82
2021/12/31 10:07:28;;;;;;;1.80;1.70;;;13.50;99.90;;;;;;7390053;19;20416;-82
2021/12/31 10:10:03;;;;;;;0.88;0.88;;;13.50;99.90;;;;;;7391398;19;20352;-83
2021/12/31 10:12:52;;;;;;;0.80;0.80;;;13.60;99.90;;;;;;7291311;19;2020089;-82
2021/12/31 10:15:24;;;;;;;0.68;0.68;;;13.50;99.90;;;;;;7292235;19;2005043;-81
2021/12/31 10:17:50;;;;;;;0.70;0.70;;;13.70;99.90;;;;;;7396226;19;20316;-84
2021/12/31 10:20:16;;;;;;;0.70;0.70;;;13.60;99.90;;;;;;7399210;19;20301;-81
2021/12/31 10:22:43;;;;;;;0.75;0.75;;;13.50;99.90;;;;;;7399505;19;20360;-83
2021/12/31 10:25:17;;;;;;;1.40;0.80;;;13.60;99.90;;;;;;7401438;19;20411;-82
2021/12/31 10:27:43;;;;;;;0.70;0.70;;;13.60;99.90;;;;;;7299968;19;2005915;-84
2021/12/31 10:30:09;;;;;;;1.10;1.00;;;13.60;99.90;;;;;;7400455;19;20352;-80
2021/12/31 10:32:40;;;;;;;1.13;0.90;;;13.60;99.90;;;;;;7396521;19;20808;-83
2021/12/31 10:35:13;;;;;;;0.70;0.70;;;13.70;99.90;;;;;;7397825;19;20333;-81
2021/12/31 10:37:52;;;;;;;0.88;0.88;;;13.70;99.90;;;;;;7398400;19;20297;-81
2021/12/31 10:40:32;;;;;;;1.23;0.93;;;13.80;99.90;;;;;;7292071;19;2005471;-80
2021/12/31 10:43:11;;;;;;;0.60;0.60;;;13.80;99.90;;;;;;7294638;19;2005316;-80
2021/12/31 10:45:42;;;;;;;1.15;1.00;;;13.90;99.90;;;;;;7291911;19;2010152;-81
2021/12/31 10:48:09;;;;;;;0.82;0.82;;;13.90;99.90;;;;;;7393885;19;20336;-80
2021/12/31 10:50:37;;;;;;;0.80;0.80;;;13.80;99.90;;;;;;7392895;19;20320;-81
2021/12/31 10:53:10;;;;;;;0.90;0.90;;;13.90;99.90;;;;;;7389509;19;20312;-80
2021/12/31 10:55:39;;;;;;;0.82;0.82;;;13.90;99.90;;;;;;7388771;19;20779;-81
2021/12/31 10:58:07;;;;;;;0.82;0.82;;;13.90;99.90;;;;;;7391396;19;20388;-81
2021/12/31 11:00:34;;;;;;;0.70;0.70;;;14.00;99.90;;;;;;7391602;19;20352;-81
2021/12/31 11:03:00;;;;;;;0.93;0.82;;;14.00;99.90;;;;;;7385846;19;20337;-80
2021/12/31 11:05:26;;;;;;;0.73;0.73;;;13.90;99.90;;;;;;7391527;19;20329;-81
2021/12/31 11:07:52;;;;;;;0.87;0.80;;;14.00;99.90;;;;;;7388590;19;20312;-81
2021/12/31 11:10:24;;;;;;;0.70;0.70;;;14.00;99.90;;;;;;7386456;19;20309;-86
2021/12/31 11:12:50;;;;;;;1.30;0.93;;;14.00;99.90;;;;;;7392986;19;20328;-81
2021/12/31 11:15:16;;;;;;;0.77;0.77;;;14.10;99.90;;;;;;7392804;19;20454;-84
2021/12/31 11:17:41;;;;;;;0.80;0.80;;;14.10;99.90;;;;;;7399343;19;21016;-81
2021/12/31 11:20:08;;;;;;;0.90;0.85;;;14.10;99.90;;;;;;7390976;19;20316;-81
2021/12/31 11:22:33;;;;;;;0.80;0.80;;;14.10;99.90;;;;;;7382544;19;20359;-81
2021/12/31 11:25:17;;;;;;;1.17;1.10;;;14.10;99.90;;;;;;7385473;19;20344;-87
2021/12/31 11:27:46;;;;;;;0.80;0.80;;;14.00;99.90;;;;;;7285005;19;2006543;-80
2021/12/31 11:30:37;;;;;;;1.00;1.00;;;14.00;99.90;;;;;;7385232;19;20316;-81
2021/12/31 11:33:07;;;;;;;1.00;1.00;;;13.90;99.90;;;;;;7281409;19;2005481;-85
2021/12/31 11:35:56;;;;;;;0.93;0.93;;;13.90;99.90;;;;;;7390878;19;20877;-82
2021/12/31 11:38:21;;;;;;;1.75;1.35;;;13.90;99.90;;;;;;7389555;19;20341;-81
2021/12/31 11:40:51;;;;;;;2.97;1.90;;;13.80;99.90;;;;;;7387580;19;20381;-85
2021/12/31 11:43:24;;;;;;;2.97;2.67;;;13.80;99.90;;;;;;7385918;19;20316;-85
2021/12/31 11:46:08;;;;;;;3.28;2.10;;;13.90;99.90;;;;;;7389334;19;20319;-82
2021/12/31 11:48:43;;;;;;;1.70;1.60;;;13.80;99.90;;;;;;7286753;19;2004560;-86
2021/12/31 11:51:12;;;;;;;1.25;1.15;;;13.80;99.90;;;;;;7270933;19;2009209;-83
2021/12/31 11:53:59;;;;;;;1.02;1.02;;;13.80;99.90;;;;;;7387235;19;20434;-81
2021/12/31 11:56:36;;;;;;;0.70;0.70;;;13.80;99.90;;;;;;7290933;19;2004405;-80
2021/12/31 11:59:11;;;;;;;1.08;1.00;;;13.80;99.90;;;;;;7281975;19;2006178;-80
2021/12/31 12:01:36;;;;;;;1.10;0.80;;;13.90;99.90;;;;;;7282313;19;2013489;-80
2021/12/31 12:04:22;;;;;;;1.57;0.93;;;13.90;99.90;;;;;;7382947;19;20673;-82
2021/12/31 12:06:55;;;;;;;0.70;0.70;;;13.90;99.90;;;;;;7386025;19;20329;-81
2021/12/31 12:09:42;;;;;;;0.70;0.70;;;14.00;99.90;;;;;;7385585;19;20320;-86
2021/12/31 12:12:17;;;;;;;1.13;1.05;;;13.90;99.90;;;;;;7316307;19;2006707;-85
2021/12/31 12:29:12;;;;;;;0.95;0.95;;;13.90;99.90;;;;;;7409542;19;20351;-90
2021/12/31 12:31:45;;;;;;;1.05;1.05;;;13.90;99.90;;;;;;7413761;19;20317;-91
2021/12/31 12:34:13;;;;;;;0.80;0.80;;;13.90;99.90;;;;;;7306020;19;2004328;-87
2021/12/31 12:36:39;;;;;;;1.02;0.93;;;13.90;99.90;;;;;;7415357;19;20356;-89
2021/12/31 12:39:05;;;;;;;0.80;0.80;;;13.90;99.90;;;;;;7426300;19;20354;-88
2021/12/31 12:41:34;;;;;;;0.93;0.93;;;14.00;99.90;;;;;;7425359;19;20325;-82
2021/12/31 12:44:06;;;;;;;0.88;0.88;;;14.00;99.90;;;;;;7414171;19;20335;-86
2021/12/31 12:46:36;;;;;;;1.05;0.80;;;13.90;99.90;;;;;;7395501;19;20304;-84
2021/12/31 12:49:10;;;;;;;0.70;0.70;;;13.90;99.90;;;;;;7422923;19;20332;-83
2021/12/31 12:51:39;;;;;;;0.88;0.88;;;14.10;99.90;;;;;;7418814;19;20427;-88
2021/12/31 12:54:13;;;;;;;0.90;0.90;;;13.90;99.90;;;;;;7401102;19;20322;-86
2021/12/31 12:56:40;;;;;;;0.70;0.70;;;13.90;99.90;;;;;;7417520;19;20341;-83
2021/12/31 12:59:09;;;;;;;0.70;0.70;;;14.10;99.90;;;;;;7418308;19;20325;-83
2021/12/31 13:09:56;;;;;;;0.70;0.70;;;14.00;99.90;;;;;;7366599;19;20337;-89